Time;durP1;ratioP1;P1;durP2;ratioP2;P2;SDS_P1;SDS_P2;PMS_P1;PMS_P2;Temp;Humidity;BMP_temperature;BMP_pressure;BME280_temperature;BME280_humidity;BME280_pressure;Samples;Min_cycle;Max_cycle;Signal;HPM_P1;HPM_P2
2023/11/11 00:01:55;;;;;;;;;;;9.20;72.90;;;;;;5017245;28;89923;-53
2023/11/11 00:04:23;;;;;;;;;;;9.20;72.90;;;;;;5015170;28;87228;-55
2023/11/11 00:06:49;;;;;;;;;;;9.20;73.00;;;;;;5015596;28;87618;-55
2023/11/11 00:09:15;;;;;;;;;;;9.20;73.10;;;;;;5014825;28;87921;-54
2023/11/11 00:11:41;;;;;;;;;;;9.20;73.10;;;;;;5012682;28;86989;-54
2023/11/11 00:14:08;;;;;;;;;;;9.20;73.30;;;;;;5015839;28;87336;-56
2023/11/11 00:16:34;;;;;;;;;;;9.20;73.30;;;;;;5016197;28;87252;-55
2023/11/11 00:19:01;;;;;;;;;;;9.20;73.20;;;;;;5011417;28;87479;-55
2023/11/11 00:21:27;;;;;;;;;;;9.20;73.50;;;;;;5010687;28;88957;-57
2023/11/11 00:23:53;;;;;;;;;;;9.20;73.10;;;;;;5011335;28;87119;-56
2023/11/11 00:26:18;;;;;;;;;;;9.20;73.20;;;;;;5017697;28;87269;-54
2023/11/11 00:28:44;;;;;;;;;;;9.20;72.90;;;;;;5014708;28;88109;-54
2023/11/11 00:31:10;;;;;;;;;;;9.20;73.10;;;;;;5016048;28;88273;-51
2023/11/11 00:33:38;;;;;;;;;;;9.20;72.90;;;;;;5012689;28;89551;-53
2023/11/11 00:36:05;;;;;;;;;;;9.30;73.00;;;;;;5012619;28;87218;-51
2023/11/11 00:38:31;;;;;;;;;;;9.20;73.20;;;;;;5014985;28;88720;-53
2023/11/11 00:40:56;;;;;;;;;;;9.20;73.40;;;;;;5012156;28;88026;-55
2023/11/11 00:43:22;;;;;;;;;;;9.20;73.20;;;;;;5012417;28;87137;-55
2023/11/11 00:45:47;;;;;;;;;;;9.20;73.20;;;;;;5008365;28;87964;-50
2023/11/11 00:48:13;;;;;;;;;;;9.20;73.10;;;;;;5013923;28;88047;-56
2023/11/11 00:50:39;;;;;;;;;;;9.20;73.20;;;;;;5011466;28;87512;-54
2023/11/11 00:53:04;;;;;;;;;;;9.20;73.10;;;;;;5014500;28;87682;-55
2023/11/11 00:55:30;;;;;;;;;;;9.20;72.90;;;;;;5014695;28;87186;-54
2023/11/11 00:57:56;;;;;;;;;;;9.20;72.90;;;;;;5011234;28;88774;-55
2023/11/11 01:00:22;;;;;;;;;;;9.30;73.00;;;;;;5011774;28;89483;-53
2023/11/11 01:02:49;;;;;;;;;;;9.30;73.20;;;;;;5013409;28;87978;-54
2023/11/11 01:05:15;;;;;;;;;;;9.30;73.10;;;;;;5013182;28;87157;-56
2023/11/11 01:07:40;;;;;;;;;;;9.20;73.00;;;;;;5014652;28;87982;-53
2023/11/11 01:10:07;;;;;;;;;;;9.20;72.90;;;;;;5015519;28;88499;-54
2023/11/11 01:12:33;;;;;;;;;;;9.30;73.00;;;;;;5011607;28;88409;-53
2023/11/11 01:14:58;;;;;;;;;;;9.20;73.20;;;;;;5015746;28;87187;-51
2023/11/11 01:17:24;;;;;;;;;;;9.20;72.90;;;;;;5012031;28;87608;-56
2023/11/11 01:19:50;;;;;;;;;;;9.30;73.10;;;;;;5013072;28;88197;-57
2023/11/11 01:22:19;;;;;;;;;;;9.30;73.20;;;;;;5010962;28;87238;-53
2023/11/11 01:24:45;;;;;;;;;;;9.20;72.90;;;;;;5012960;28;87141;-54
2023/11/11 01:27:11;;;;;;;;;;;9.30;73.10;;;;;;5016248;28;89451;-55
2023/11/11 01:29:38;;;;;;;;;;;9.20;73.10;;;;;;5012218;28;87212;-56
2023/11/11 01:32:05;;;;;;;;;;;9.20;73.00;;;;;;5013281;28;88760;-54
2023/11/11 01:34:30;;;;;;;;;;;9.30;73.10;;;;;;5011214;28;90251;-54
2023/11/11 01:36:56;;;;;;;;;;;9.30;73.30;;;;;;5017814;28;87212;-54
2023/11/11 01:39:22;;;;;;;;;;;9.20;73.10;;;;;;5013054;28;89556;-56
2023/11/11 01:41:47;;;;;;;;;;;9.20;73.30;;;;;;5014530;28;87216;-55
2023/11/11 01:44:13;;;;;;;;;;;9.30;73.10;;;;;;5011268;28;87005;-55
2023/11/11 01:46:39;;;;;;;;;;;9.30;72.90;;;;;;5014500;28;89691;-53
2023/11/11 01:49:06;;;;;;;;;;;9.30;73.00;;;;;;5014891;28;87083;-53
2023/11/11 01:51:31;;;;;;;;;;;9.30;73.10;;;;;;5012318;28;86677;-55
2023/11/11 01:53:57;;;;;;;;;;;9.30;73.00;;;;;;5012959;28;88118;-55
2023/11/11 01:56:24;;;;;;;;;;;9.30;73.00;;;;;;5017758;28;87128;-53
2023/11/11 01:58:49;;;;;;;;;;;9.30;73.30;;;;;;5011917;28;89091;-55
2023/11/11 02:01:15;;;;;;;;;;;9.30;73.20;;;;;;5012289;28;87175;-52
2023/11/11 02:03:41;;;;;;;;;;;9.30;73.00;;;;;;5011495;28;87433;-51
2023/11/11 02:06:09;;;;;;;;;;;9.30;73.10;;;;;;5010854;28;87911;-51
2023/11/11 02:08:35;;;;;;;;;;;9.30;73.00;;;;;;5011791;28;87295;-56
2023/11/11 02:11:01;;;;;;;;;;;9.40;72.90;;;;;;5014598;28;87346;-52
2023/11/11 02:13:30;;;;;;;;;;;9.30;72.90;;;;;;5013097;28;87982;-56
2023/11/11 02:15:56;;;;;;;;;;;9.30;73.00;;;;;;5012257;28;86432;-56
2023/11/11 02:18:22;;;;;;;;;;;9.30;73.10;;;;;;5015614;28;87129;-52
2023/11/11 02:20:49;;;;;;;;;;;9.30;73.30;;;;;;5012235;28;87564;-52
2023/11/11 02:23:16;;;;;;;;;;;9.30;73.40;;;;;;5010945;28;87982;-52
2023/11/11 02:25:41;;;;;;;;;;;9.30;72.90;;;;;;5008935;28;89331;-55
2023/11/11 02:28:07;;;;;;;;;;;9.30;73.10;;;;;;5011709;28;87358;-53
2023/11/11 02:30:32;;;;;;;;;;;9.30;73.00;;;;;;5009952;28;87040;-51
2023/11/11 02:32:58;;;;;;;;;;;9.30;73.30;;;;;;5011996;28;88104;-52
2023/11/11 02:35:25;;;;;;;;;;;9.30;73.00;;;;;;5016331;28;87233;-56
2023/11/11 02:37:50;;;;;;;;;;;9.30;73.00;;;;;;5011772;28;88983;-51
2023/11/11 02:40:16;;;;;;;;;;;9.30;73.20;;;;;;5014506;28;87783;-56
2023/11/11 02:42:42;;;;;;;;;;;9.30;73.20;;;;;;5011385;28;87051;-53
2023/11/11 02:45:08;;;;;;;;;;;9.30;73.30;;;;;;5013024;28;89712;-51
2023/11/11 02:47:34;;;;;;;;;;;9.30;73.30;;;;;;5009508;28;88162;-53
2023/11/11 02:49:59;;;;;;;;;;;9.30;73.10;;;;;;5011014;28;88175;-51
2023/11/11 02:52:25;;;;;;;;;;;9.30;73.30;;;;;;5011771;28;88050;-53
2023/11/11 02:54:51;;;;;;;;;;;9.30;73.20;;;;;;5013580;28;87282;-55
2023/11/11 02:57:16;;;;;;;;;;;9.40;73.20;;;;;;5013714;28;88660;-54
2023/11/11 02:59:42;;;;;;;;;;;9.40;73.10;;;;;;5012043;28;88038;-48
2023/11/11 03:02:11;;;;;;;;;;;9.30;73.30;;;;;;5013934;28;87091;-52
2023/11/11 03:04:37;;;;;;;;;;;9.30;73.60;;;;;;5011558;28;89248;-55
2023/11/11 03:07:02;;;;;;;;;;;9.30;73.30;;;;;;5011213;28;87705;-52
2023/11/11 03:09:28;;;;;;;;;;;9.30;73.30;;;;;;5013283;28;87960;-53
2023/11/11 03:11:54;;;;;;;;;;;9.30;73.20;;;;;;5010715;28;89096;-52
2023/11/11 03:14:20;;;;;;;;;;;9.30;73.30;;;;;;5012098;28;87122;-51
2023/11/11 03:16:45;;;;;;;;;;;9.40;73.40;;;;;;5017004;28;87763;-52
2023/11/11 03:19:11;;;;;;;;;;;9.40;73.40;;;;;;5011385;28;88048;-52
2023/11/11 03:21:36;;;;;;;;;;;9.30;73.40;;;;;;5011670;28;87110;-55
2023/11/11 03:24:02;;;;;;;;;;;9.30;73.50;;;;;;5016165;28;87786;-51
2023/11/11 03:26:27;;;;;;;;;;;9.40;73.50;;;;;;5009434;28;87129;-51
2023/11/11 03:28:53;;;;;;;;;;;9.30;73.70;;;;;;4995408;28;90226;-52
2023/11/11 03:31:19;;;;;;;;;;;9.40;73.60;;;;;;5012224;28;89642;-54
2023/11/11 03:33:47;;;;;;;;;;;9.40;73.50;;;;;;5012579;28;87229;-51
2023/11/11 03:36:13;;;;;;;;;;;9.40;73.60;;;;;;5012633;28;87941;-52
2023/11/11 03:38:38;;;;;;;;;;;9.30;73.30;;;;;;5010481;28;89466;-54
2023/11/11 03:41:04;;;;;;;;;;;9.30;73.80;;;;;;5011661;28;87102;-53
2023/11/11 03:43:30;;;;;;;;;;;9.30;73.70;;;;;;4994267;28;88534;-53
2023/11/11 03:45:56;;;;;;;;;;;9.30;73.30;;;;;;5012932;28;87224;-51
2023/11/11 03:48:23;;;;;;;;;;;9.30;73.50;;;;;;5012462;28;87373;-52
2023/11/11 03:50:48;;;;;;;;;;;9.30;73.30;;;;;;5009849;28;89433;-51
2023/11/11 03:53:14;;;;;;;;;;;9.30;73.70;;;;;;5012878;28;86870;-52
2023/11/11 03:55:40;;;;;;;;;;;9.30;73.70;;;;;;5012670;28;87431;-52
2023/11/11 03:58:06;;;;;;;;;;;9.30;73.90;;;;;;5010206;28;88150;-54
2023/11/11 04:00:32;;;;;;;;;;;9.30;73.90;;;;;;5011591;28;88100;-53
2023/11/11 04:02:57;;;;;;;;;;;9.30;73.70;;;;;;5015621;28;88348;-55
2023/11/11 04:05:23;;;;;;;;;;;9.30;73.60;;;;;;5010655;28;87939;-50
2023/11/11 04:07:48;;;;;;;;;;;9.30;73.60;;;;;;5011625;28;88988;-53
2023/11/11 04:10:17;;;;;;;;;;;9.40;73.60;;;;;;5012478;28;87783;-54
2023/11/11 04:12:46;;;;;;;;;;;9.40;73.80;;;;;;5010508;28;87184;-55
2023/11/11 04:15:11;;;;;;;;;;;9.30;73.90;;;;;;5012465;28;87342;-52
2023/11/11 04:17:42;;;;;;;;;;;9.30;73.90;;;;;;5016851;28;87356;-52
2023/11/11 04:20:11;;;;;;;;;;;9.30;73.90;;;;;;5013408;28;87117;-53
2023/11/11 04:22:40;;;;;;;;;;;9.30;73.90;;;;;;5018326;28;89159;-52
2023/11/11 04:25:07;;;;;;;;;;;9.30;73.80;;;;;;5014858;28;89083;-54
2023/11/11 04:27:33;;;;;;;;;;;9.40;74.00;;;;;;5016545;28;87202;-52
2023/11/11 04:29:59;;;;;;;;;;;9.30;74.00;;;;;;5015406;28;88199;-52
2023/11/11 04:32:27;;;;;;;;;;;9.30;74.10;;;;;;5015084;28;87114;-53
2023/11/11 04:34:53;;;;;;;;;;;9.40;74.00;;;;;;5015010;28;88734;-52
2023/11/11 04:37:19;;;;;;;;;;;9.30;74.30;;;;;;5010425;28;89661;-54
2023/11/11 04:39:47;;;;;;;;;;;9.30;73.90;;;;;;5015259;28;87082;-54
2023/11/11 04:42:16;;;;;;;;;;;9.40;74.30;;;;;;5013929;28;87899;-51
2023/11/11 04:44:44;;;;;;;;;;;9.30;74.20;;;;;;5013477;28;89358;-54
2023/11/11 04:47:10;;;;;;;;;;;9.30;74.20;;;;;;5016042;28;86986;-50
2023/11/11 04:49:36;;;;;;;;;;;9.30;74.10;;;;;;5016671;28;88730;-55
2023/11/11 04:52:04;;;;;;;;;;;9.30;73.90;;;;;;5013221;28;87043;-56
2023/11/11 04:54:32;;;;;;;;;;;9.30;74.30;;;;;;5013438;28;88887;-54
2023/11/11 04:57:01;;;;;;;;;;;9.30;74.00;;;;;;5010096;28;87995;-53
2023/11/11 04:59:26;;;;;;;;;;;9.40;74.20;;;;;;5013459;28;87214;-52
2023/11/11 05:01:53;;;;;;;;;;;9.30;74.10;;;;;;5013898;28;87107;-52
2023/11/11 05:04:22;;;;;;;;;;;9.40;74.20;;;;;;5011135;28;89299;-53
2023/11/11 05:06:48;;;;;;;;;;;9.30;73.90;;;;;;5015053;28;86342;-51
2023/11/11 05:09:15;;;;;;;;;;;9.30;73.90;;;;;;5015143;28;87084;-53
2023/11/11 05:11:41;;;;;;;;;;;9.40;74.10;;;;;;5014992;28;88125;-52
2023/11/11 05:14:07;;;;;;;;;;;9.40;74.00;;;;;;5012678;28;88006;-53
2023/11/11 05:16:43;;;;;;;;;;;9.40;74.20;;;;;;5014460;28;88876;-55
2023/11/11 05:19:10;;;;;;;;;;;9.40;73.80;;;;;;5013911;28;86939;-52
2023/11/11 05:21:36;;;;;;;;;;;9.40;74.10;;;;;;5012306;28;87702;-50
2023/11/11 05:24:02;;;;;;;;;;;9.40;74.10;;;;;;5013888;28;88040;-54
2023/11/11 05:26:28;;;;;;;;;;;9.40;73.90;;;;;;5012903;28;87111;-55
2023/11/11 05:28:55;;;;;;;;;;;9.40;73.90;;;;;;5012412;28;87283;-53
2023/11/11 05:31:25;;;;;;;;;;;9.40;73.90;;;;;;5014007;28;87256;-56
2023/11/11 05:33:51;;;;;;;;;;;9.30;73.70;;;;;;5017633;28;87133;-55
2023/11/11 05:36:17;;;;;;;;;;;9.30;73.80;;;;;;5012378;28;88537;-54
2023/11/11 05:38:42;;;;;;;;;;;9.40;73.90;;;;;;5012336;28;88214;-55
2023/11/11 05:41:08;;;;;;;;;;;9.40;74.50;;;;;;5014886;28;88434;-52
2023/11/11 05:43:34;;;;;;;;;;;9.40;73.90;;;;;;5012343;28;88135;-52
2023/11/11 05:46:00;;;;;;;;;;;9.40;73.80;;;;;;5012849;28;88251;-56
2023/11/11 05:48:26;;;;;;;;;;;9.40;73.80;;;;;;5014338;28;88942;-54
2023/11/11 05:50:51;;;;;;;;;;;9.40;73.90;;;;;;5013123;28;89318;-56
2023/11/11 05:53:17;;;;;;;;;;;9.40;73.70;;;;;;5018287;28;87238;-51
2023/11/11 05:55:43;;;;;;;;;;;9.40;73.90;;;;;;5012317;28;88910;-50
2023/11/11 05:58:09;;;;;;;;;;;9.50;74.10;;;;;;5012518;28;87110;-53
2023/11/11 06:00:37;;;;;;;;;;;9.40;73.90;;;;;;5013113;28;87291;-52
2023/11/11 06:03:03;;;;;;;;;;;9.50;74.00;;;;;;5011199;28;89240;-52
2023/11/11 06:05:29;;;;;;;;;;;9.50;73.80;;;;;;5009074;28;88607;-55
2023/11/11 06:07:54;;;;;;;;;;;9.40;73.80;;;;;;5011665;28;87985;-52
2023/11/11 06:10:20;;;;;;;;;;;9.50;74.00;;;;;;5013629;28;87758;-51
2023/11/11 06:12:47;;;;;;;;;;;9.40;74.00;;;;;;5018071;28;87479;-54
2023/11/11 06:15:12;;;;;;;;;;;9.40;74.10;;;;;;5012059;28;88972;-53
2023/11/11 06:17:38;;;;;;;;;;;9.40;73.90;;;;;;5012949;28;87157;-50
2023/11/11 06:20:05;;;;;;;;;;;9.40;74.10;;;;;;5015532;28;88722;-52
2023/11/11 06:22:32;;;;;;;;;;;9.40;74.10;;;;;;5009581;28;89117;-54
2023/11/11 06:24:58;;;;;;;;;;;9.40;74.20;;;;;;5010377;28;87186;-56
2023/11/11 06:27:24;;;;;;;;;;;9.50;74.10;;;;;;5013884;28;88165;-52
2023/11/11 06:29:49;;;;;;;;;;;9.50;73.90;;;;;;5011486;28;87848;-54
2023/11/11 06:32:15;;;;;;;;;;;9.40;74.00;;;;;;5014295;28;87643;-56
2023/11/11 06:34:41;;;;;;;;;;;9.50;74.10;;;;;;5010094;28;87522;-55
2023/11/11 06:37:06;;;;;;;;;;;9.40;73.80;;;;;;5013615;28;89726;-54
2023/11/11 06:39:33;;;;;;;;;;;9.50;74.10;;;;;;5014342;28;87362;-53
2023/11/11 06:41:59;;;;;;;;;;;9.40;73.90;;;;;;5008009;28;88506;-50
2023/11/11 06:44:24;;;;;;;;;;;9.50;73.90;;;;;;5010554;28;86886;-54
2023/11/11 06:46:50;;;;;;;;;;;9.40;74.00;;;;;;5007379;28;87299;-55
2023/11/11 06:49:16;;;;;;;;;;;9.40;74.10;;;;;;5008497;28;88141;-54
2023/11/11 06:51:42;;;;;;;;;;;9.50;74.30;;;;;;5013993;28;89160;-51
2023/11/11 06:54:09;;;;;;;;;;;9.40;74.00;;;;;;5013121;28;87544;-55
2023/11/11 06:56:35;;;;;;;;;;;9.40;74.30;;;;;;5014467;28;88024;-56
2023/11/11 06:59:02;;;;;;;;;;;9.40;74.20;;;;;;5013454;28;88131;-54
2023/11/11 07:01:29;;;;;;;;;;;9.40;74.00;;;;;;5009703;28;89900;-53
2023/11/11 07:03:56;;;;;;;;;;;9.50;74.10;;;;;;5010756;28;88265;-55
2023/11/11 07:06:24;;;;;;;;;;;9.40;74.00;;;;;;5014454;28;89297;-54
2023/11/11 07:08:50;;;;;;;;;;;9.40;74.00;;;;;;5011064;28;88372;-57
2023/11/11 07:11:16;;;;;;;;;;;9.50;73.90;;;;;;5009796;28;87719;-52
2023/11/11 07:13:44;;;;;;;;;;;9.40;74.00;;;;;;5010599;28;87683;-53
2023/11/11 07:16:12;;;;;;;;;;;9.50;74.10;;;;;;5007022;28;90241;-54
2023/11/11 07:18:38;;;;;;;;;;;9.50;74.20;;;;;;5009529;28;87416;-55
2023/11/11 07:21:04;;;;;;;;;;;9.50;74.20;;;;;;5012003;28;87478;-55
2023/11/11 07:23:31;;;;;;;;;;;9.60;74.10;;;;;;5010135;28;87042;-52
2023/11/11 07:25:57;;;;;;;;;;;9.50;73.80;;;;;;5008343;28;87357;-52
2023/11/11 07:28:24;;;;;;;;;;;9.50;73.80;;;;;;5008083;28;89556;-52
2023/11/11 07:30:50;;;;;;;;;;;9.50;74.10;;;;;;5015050;28;87811;-56
2023/11/11 07:33:16;;;;;;;;;;;9.60;74.10;;;;;;5010877;28;88854;-54
2023/11/11 07:35:41;;;;;;;;;;;9.60;73.90;;;;;;5011661;28;88122;-50
2023/11/11 07:38:07;;;;;;;;;;;9.60;74.00;;;;;;5011576;28;87056;-49
2023/11/11 07:40:32;;;;;;;;;;;9.60;73.70;;;;;;5011039;28;89819;-55
2023/11/11 07:42:58;;;;;;;;;;;9.60;73.80;;;;;;5012401;28;88609;-51
2023/11/11 07:45:24;;;;;;;;;;;9.60;73.80;;;;;;5014198;28;87719;-52
2023/11/11 07:47:50;;;;;;;;;;;9.60;73.80;;;;;;5009766;28;89353;-54
2023/11/11 07:50:17;;;;;;;;;;;9.60;73.80;;;;;;5014937;28;88344;-56
2023/11/11 07:52:43;;;;;;;;;;;9.70;73.70;;;;;;5015542;28;88883;-55
2023/11/11 07:55:10;;;;;;;;;;;9.70;73.90;;;;;;5012703;28;89159;-55
2023/11/11 07:57:36;;;;;;;;;;;9.70;73.60;;;;;;5015303;28;86533;-53
2023/11/11 08:00:05;;;;;;;;;;;9.70;73.60;;;;;;5018177;28;88076;-54
2023/11/11 08:02:31;;;;;;;;;;;9.70;73.60;;;;;;5014229;28;89514;-55
2023/11/11 08:04:56;;;;;;;;;;;9.70;73.60;;;;;;5012599;28;88934;-56
2023/11/11 08:07:22;;;;;;;;;;;9.70;73.70;;;;;;5016762;28;89851;-54
2023/11/11 08:09:48;;;;;;;;;;;9.70;73.90;;;;;;5012667;28;87280;-55
2023/11/11 08:12:13;;;;;;;;;;;9.70;73.60;;;;;;5015149;28;89316;-56
2023/11/11 08:14:39;;;;;;;;;;;9.70;73.90;;;;;;5016711;28;88364;-55
2023/11/11 08:17:05;;;;;;;;;;;9.70;73.80;;;;;;5016003;28;87568;-55
2023/11/11 08:19:33;;;;;;;;;;;9.70;73.90;;;;;;5014942;28;88838;-58
2023/11/11 08:21:59;;;;;;;;;;;9.70;73.70;;;;;;5052351;22;87965;-51
2023/11/11 08:24:25;;;;;;;;;;;9.70;74.40;;;;;;5021767;28;87085;-55
2023/11/11 08:26:50;;;;;;;;;;;9.70;73.60;;;;;;5015471;28;87825;-58
2023/11/11 08:29:16;;;;;;;;;;;9.70;73.70;;;;;;5008853;28;88124;-54
2023/11/11 08:31:42;;;;;;;;;;;9.70;73.50;;;;;;5012529;28;88270;-55
2023/11/11 08:34:08;;;;;;;;;;;9.70;73.70;;;;;;5011285;28;89097;-55
2023/11/11 08:36:35;;;;;;;;;;;9.70;73.60;;;;;;5017971;28;87805;-57
2023/11/11 08:39:00;;;;;;;;;;;9.70;73.90;;;;;;5011313;28;89121;-51
2023/11/11 08:41:26;;;;;;;;;;;9.70;73.60;;;;;;5011763;28;87749;-58
2023/11/11 08:43:51;;;;;;;;;;;9.80;73.80;;;;;;5011002;28;87862;-56
2023/11/11 08:46:17;;;;;;;;;;;9.80;73.80;;;;;;5018840;28;87451;-52
2023/11/11 08:48:42;;;;;;;;;;;9.80;73.60;;;;;;5009041;28;89145;-57
2023/11/11 08:51:09;;;;;;;;;;;9.80;73.90;;;;;;5014584;28;87961;-53
2023/11/11 08:53:35;;;;;;;;;;;9.80;73.90;;;;;;4996067;28;90281;-53
2023/11/11 08:56:01;;;;;;;;;;;9.80;74.00;;;;;;5011366;28;87256;-57
2023/11/11 08:58:27;;;;;;;;;;;9.80;74.00;;;;;;5013500;28;88600;-55
2023/11/11 09:00:53;;;;;;;;;;;9.80;74.40;;;;;;5014230;28;88124;-54
2023/11/11 09:03:18;;;;;;;;;;;9.80;74.20;;;;;;5011815;28;87166;-55
2023/11/11 09:05:44;;;;;;;;;;;9.80;74.00;;;;;;5016106;28;87597;-54
2023/11/11 09:08:10;;;;;;;;;;;9.80;74.30;;;;;;5017088;28;88830;-57
2023/11/11 09:10:36;;;;;;;;;;;9.80;73.90;;;;;;5009435;28;87466;-50
2023/11/11 09:13:03;;;;;;;;;;;9.80;74.50;;;;;;5015080;28;89578;-55
2023/11/11 09:15:29;;;;;;;;;;;9.80;74.40;;;;;;5011255;28;87164;-56
2023/11/11 09:17:55;;;;;;;;;;;9.90;74.30;;;;;;5015374;28;88100;-59
2023/11/11 09:20:22;;;;;;;;;;;9.80;74.20;;;;;;5013184;28;88730;-59
2023/11/11 09:22:49;;;;;;;;;;;9.80;74.00;;;;;;5052412;22;87981;-53
2023/11/11 09:25:15;;;;;;;;;;;9.80;74.30;;;;;;5011114;28;87985;-54
2023/11/11 09:27:41;;;;;;;;;;;9.80;74.30;;;;;;5014558;28;88027;-54
2023/11/11 09:30:08;;;;;;;;;;;9.80;74.90;;;;;;5017068;28;87326;-53
2023/11/11 09:32:34;;;;;;;;;;;9.90;74.40;;;;;;5014794;28;88012;-51
2023/11/11 09:35:00;;;;;;;;;;;9.90;75.10;;;;;;5018422;28;86372;-52
2023/11/11 09:37:26;;;;;;;;;;;9.90;74.80;;;;;;5010463;28;87497;-53
2023/11/11 09:39:51;;;;;;;;;;;9.90;74.90;;;;;;5018341;28;89149;-53
2023/11/11 09:42:17;;;;;;;;;;;9.80;74.60;;;;;;5016310;28;88837;-57
2023/11/11 09:44:42;;;;;;;;;;;9.90;75.20;;;;;;5016779;28;88332;-55
2023/11/11 09:47:10;;;;;;;;;;;9.80;75.70;;;;;;5011503;28;88701;-55
2023/11/11 09:49:36;;;;;;;;;;;9.80;75.30;;;;;;5015050;28;88528;-56
2023/11/11 09:52:03;;;;;;;;;;;9.90;75.50;;;;;;5018614;28;87574;-54
2023/11/11 09:54:29;;;;;;;;;;;9.90;74.60;;;;;;5013838;28;87204;-56
2023/11/11 09:56:56;;;;;;;;;;;9.90;75.10;;;;;;5014032;28;87782;-54
2023/11/11 09:59:22;;;;;;;;;;;9.90;75.40;;;;;;5020871;28;86403;-55
2023/11/11 10:01:48;;;;;;;;;;;9.90;75.20;;;;;;5012429;28;87709;-54
2023/11/11 10:04:14;;;;;;;;;;;9.90;75.20;;;;;;5016874;28;88920;-57
2023/11/11 10:06:40;;;;;;;;;;;9.90;75.40;;;;;;4995905;28;91815;-52
2023/11/11 10:09:08;;;;;;;;;;;9.90;75.50;;;;;;5016169;28;87197;-54
2023/11/11 10:11:37;;;;;;;;;;;9.90;75.60;;;;;;5018601;28;87096;-54
2023/11/11 10:14:03;;;;;;;;;;;10.00;75.20;;;;;;5013792;28;87744;-55
2023/11/11 10:16:29;;;;;;;;;;;10.00;75.50;;;;;;5010613;28;87106;-57
2023/11/11 10:19:01;;;;;;;;;;;9.90;75.30;;;;;;5015581;28;88299;-56
2023/11/11 10:21:27;;;;;;;;;;;10.00;75.50;;;;;;5014304;28;87094;-54
2023/11/11 10:23:55;;;;;;;;;;;10.00;75.90;;;;;;5009336;28;87256;-56
2023/11/11 10:26:21;;;;;;;;;;;10.00;75.30;;;;;;5012919;28;88005;-50
2023/11/11 10:28:50;;;;;;;;;;;10.00;75.90;;;;;;5016413;28;87122;-55
2023/11/11 10:31:18;;;;;;;;;;;10.00;75.60;;;;;;5014253;28;88712;-53
2023/11/11 10:33:44;;;;;;;;;;;10.00;76.20;;;;;;5017277;28;88687;-54
2023/11/11 10:36:10;;;;;;;;;;;10.00;75.60;;;;;;5014026;28;87763;-52
2023/11/11 10:38:35;;;;;;;;;;;10.00;75.80;;;;;;5017547;28;89747;-61
2023/11/11 10:41:01;;;;;;;;;;;10.00;76.10;;;;;;5012505;28;87119;-57
2023/11/11 10:43:27;;;;;;;;;;;10.00;76.20;;;;;;5014887;28;88959;-60
2023/11/11 10:45:53;;;;;;;;;;;10.00;76.40;;;;;;5011667;28;87755;-59
2023/11/11 10:48:21;;;;;;;;;;;10.00;76.00;;;;;;5016090;28;86530;-55
2023/11/11 10:50:46;;;;;;;;;;;10.00;76.10;;;;;;5013186;28;87039;-54
2023/11/11 10:53:12;;;;;;;;;;;10.00;76.50;;;;;;5014624;28;88268;-51
2023/11/11 10:55:38;;;;;;;;;;;10.00;76.40;;;;;;5015701;28;88338;-56
2023/11/11 10:58:05;;;;;;;;;;;10.00;76.30;;;;;;5014280;28;88066;-53
2023/11/11 11:00:31;;;;;;;;;;;10.10;76.60;;;;;;5009571;28;87085;-54
2023/11/11 11:02:56;;;;;;;;;;;10.10;76.50;;;;;;5012807;28;88072;-53
2023/11/11 11:05:22;;;;;;;;;;;10.10;76.50;;;;;;5008573;28;87951;-53
2023/11/11 11:07:52;;;;;;;;;;;10.10;76.40;;;;;;5014764;28;88562;-55
2023/11/11 11:10:39;;;;;;;;;;;10.10;76.60;;;;;;5010496;28;88217;-56
2023/11/11 11:13:08;;;;;;;;;;;10.10;76.10;;;;;;4975826;28;88045;-56
2023/11/11 11:15:38;;;;;;;;;;;10.10;76.70;;;;;;4992201;28;87128;-54
2023/11/11 11:18:07;;;;;;;;;;;10.10;76.20;;;;;;4993527;28;87327;-55
2023/11/11 11:20:33;;;;;;;;;;;10.10;76.60;;;;;;4990981;28;87971;-57
2023/11/11 11:23:00;;;;;;;;;;;10.10;76.80;;;;;;4992688;28;88374;-55
2023/11/11 11:25:45;;;;;;;;;;;10.10;76.60;;;;;;4991393;28;88971;-55
2023/11/11 11:28:14;;;;;;;;;;;10.10;76.40;;;;;;4997001;28;87665;-55
2023/11/11 11:30:49;;;;;;;;;;;10.10;76.90;;;;;;4995129;28;87887;-57
2023/11/11 11:33:16;;;;;;;;;;;10.10;77.10;;;;;;4994914;28;88280;-57
2023/11/11 11:35:47;;;;;;;;;;;10.10;76.90;;;;;;4991805;28;87574;-55
2023/11/11 11:38:33;;;;;;;;;;;10.10;76.80;;;;;;4992158;28;87398;-57
2023/11/11 11:41:00;;;;;;;;;;;10.10;77.00;;;;;;4995304;28;89690;-56
2023/11/11 11:43:28;;;;;;;;;;;10.10;77.30;;;;;;4990780;28;88426;-51
2023/11/11 11:45:54;;;;;;;;;;;10.20;76.70;;;;;;4991433;28;90315;-54
2023/11/11 11:48:20;;;;;;;;;;;10.20;77.20;;;;;;5000430;28;87011;-50
2023/11/11 11:50:46;;;;;;;;;;;10.20;76.90;;;;;;4989207;28;87436;-50
2023/11/11 11:53:13;;;;;;;;;;;10.20;77.00;;;;;;4994373;28;88247;-54
2023/11/11 11:55:40;;;;;;;;;;;10.20;77.30;;;;;;4994471;28;87776;-53
2023/11/11 11:58:05;;;;;;;;;;;10.20;77.10;;;;;;4993324;28;87242;-54
2023/11/11 12:00:34;;;;;;;;;;;10.20;77.50;;;;;;4995054;28;87652;-53
2023/11/11 12:03:01;;;;;;;;;;;10.20;77.20;;;;;;4997489;28;86342;-54
2023/11/11 12:05:26;;;;;;;;;;;10.20;77.20;;;;;;4991739;28;88173;-57
2023/11/11 12:07:52;;;;;;;;;;;10.20;77.50;;;;;;4989369;28;87225;-54
2023/11/11 12:10:18;;;;;;;;;;;10.20;77.50;;;;;;4995305;28;89090;-57
2023/11/11 12:12:44;;;;;;;;;;;10.20;77.80;;;;;;4988741;28;89568;-57
2023/11/11 12:15:10;;;;;;;;;;;10.20;77.60;;;;;;4993562;28;87611;-54
2023/11/11 12:17:39;;;;;;;;;;;10.20;77.50;;;;;;4995040;28;87628;-56
2023/11/11 12:20:06;;;;;;;;;;;10.20;77.30;;;;;;4977128;28;88242;-53
2023/11/11 12:22:31;;;;;;;;;;;10.20;76.90;;;;;;4994305;28;88946;-52
2023/11/11 12:24:57;;;;;;;;;;;10.20;77.30;;;;;;4992533;28;88487;-54
2023/11/11 12:27:22;;;;;;;;;;;10.20;77.60;;;;;;4992224;28;86587;-56
2023/11/11 12:29:49;;;;;;;;;;;10.30;77.70;;;;;;4996326;28;87028;-56
2023/11/11 12:32:14;;;;;;;;;;;10.30;77.40;;;;;;4990627;28;87910;-56
2023/11/11 12:34:40;;;;;;;;;;;10.30;77.40;;;;;;4993816;28;88352;-54
2023/11/11 12:37:06;;;;;;;;;;;10.30;77.50;;;;;;4989843;28;88448;-56
2023/11/11 12:39:32;;;;;;;;;;;10.30;77.40;;;;;;4989400;28;87483;-55
2023/11/11 12:41:58;;;;;;;;;;;10.30;77.20;;;;;;4993999;28;87148;-54
2023/11/11 12:44:24;;;;;;;;;;;10.30;77.60;;;;;;4993189;28;87857;-56
2023/11/11 12:46:50;;;;;;;;;;;10.30;77.00;;;;;;4992976;28;87281;-56
2023/11/11 12:49:18;;;;;;;;;;;10.30;77.80;;;;;;4995589;28;87339;-56
2023/11/11 12:51:43;;;;;;;;;;;10.40;77.50;;;;;;4993565;28;88657;-56
2023/11/11 12:54:10;;;;;;;;;;;10.40;78.10;;;;;;4995677;28;87121;-55
2023/11/11 12:56:46;;;;;;;;;;;10.40;77.30;;;;;;4991976;28;88642;-53
2023/11/11 12:59:13;;;;;;;;;;;10.40;77.50;;;;;;4991576;28;89004;-56
2023/11/11 13:01:39;;;;;;;;;;;10.30;77.50;;;;;;4991364;28;87152;-57
2023/11/11 13:04:05;;;;;;;;;;;10.40;77.10;;;;;;4991528;28;88079;-54
2023/11/11 13:06:34;;;;;;;;;;;10.40;77.40;;;;;;5001014;28;88103;-56
2023/11/11 13:09:00;;;;;;;;;;;10.40;77.10;;;;;;4987149;28;87412;-54
2023/11/11 13:11:27;;;;;;;;;;;10.40;77.20;;;;;;4994305;28;88352;-53
2023/11/11 13:13:52;;;;;;;;;;;10.40;76.80;;;;;;4993302;28;87458;-56
2023/11/11 13:16:18;;;;;;;;;;;10.40;77.10;;;;;;4993958;28;86747;-57
2023/11/11 13:18:45;;;;;;;;;;;10.40;77.30;;;;;;4990234;28;87058;-54
2023/11/11 13:21:11;;;;;;;;;;;10.40;77.00;;;;;;4992358;28;87365;-53
2023/11/11 13:23:36;;;;;;;;;;;10.40;77.50;;;;;;4996201;28;89159;-53
2023/11/11 13:26:02;;;;;;;;;;;10.40;77.10;;;;;;4996277;28;89349;-53
2023/11/11 13:28:30;;;;;;;;;;;10.50;77.20;;;;;;4996534;28;87102;-58
2023/11/11 13:30:56;;;;;;;;;;;10.50;77.20;;;;;;4991018;28;87936;-57
2023/11/11 13:33:21;;;;;;;;;;;10.40;76.70;;;;;;4992003;28;89205;-52
2023/11/11 13:35:59;;;;;;;;;;;10.40;76.70;;;;;;4995691;28;89168;-55
2023/11/11 13:38:25;;;;;;;;;;;10.50;77.20;;;;;;4988876;28;88652;-54
2023/11/11 13:40:51;;;;;;;;;;;10.50;76.70;;;;;;4989641;28;86408;-55
2023/11/11 13:43:17;;;;;;;;;;;10.50;76.30;;;;;;4995335;28;87470;-57
2023/11/11 13:45:43;;;;;;;;;;;10.50;76.60;;;;;;4993656;28;88115;-53
2023/11/11 13:48:09;;;;;;;;;;;10.50;76.90;;;;;;4992988;28;88102;-56
2023/11/11 13:50:35;;;;;;;;;;;10.50;76.50;;;;;;4994583;28;89678;-58
2023/11/11 13:53:03;;;;;;;;;;;10.50;76.50;;;;;;4994943;28;87287;-58
2023/11/11 13:55:29;;;;;;;;;;;10.50;76.80;;;;;;4992054;28;88653;-57
2023/11/11 13:57:57;;;;;;;;;;;10.50;76.80;;;;;;4992941;28;89376;-55
2023/11/11 14:00:29;;;;;;;;;;;10.50;76.70;;;;;;4993722;28;87225;-57
2023/11/11 14:02:59;;;;;;;;;;;10.60;76.60;;;;;;4992405;28;87596;-54
2023/11/11 14:05:28;;;;;;;;;;;10.50;76.60;;;;;;4991851;28;87650;-57
2023/11/11 14:07:56;;;;;;;;;;;10.60;76.50;;;;;;4991701;28;87742;-58
2023/11/11 14:10:23;;;;;;;;;;;10.50;76.50;;;;;;4998823;28;88159;-57
2023/11/11 14:12:50;;;;;;;;;;;10.50;76.60;;;;;;4994605;28;89508;-52
2023/11/11 14:15:18;;;;;;;;;;;10.60;76.30;;;;;;4990112;28;89889;-56
2023/11/11 14:17:44;;;;;;;;;;;10.60;76.40;;;;;;4998998;28;89591;-55
2023/11/11 14:20:11;;;;;;;;;;;10.60;76.60;;;;;;4988642;28;87350;-57
2023/11/11 14:22:37;;;;;;;;;;;10.60;76.30;;;;;;4990935;28;88214;-55